createdAt,value
2023-03-22T00:02:27.453Z,9.00
2023-03-22T00:06:30.200Z,9.01
2023-03-22T00:10:33.046Z,9.00
2023-03-22T00:14:36.207Z,9.01
2023-03-22T00:18:40.506Z,9.01
2023-03-22T00:22:43.171Z,9.04
2023-03-22T00:26:47.280Z,9.07
2023-03-22T00:30:54.554Z,9.06
2023-03-22T00:34:58.567Z,9.04
2023-03-22T00:39:01.243Z,9.00
2023-03-22T00:43:03.905Z,8.98
2023-03-22T00:47:06.672Z,8.98
2023-03-22T00:51:11.710Z,8.89
2023-03-22T00:55:14.387Z,8.83
2023-03-22T00:59:17.589Z,8.81
2023-03-22T01:03:21.855Z,8.80
2023-03-22T01:07:25.992Z,8.79
2023-03-22T01:11:28.809Z,8.76
2023-03-22T01:15:31.595Z,8.74
2023-03-22T01:19:35.056Z,8.74
2023-03-22T01:23:39.329Z,8.76
2023-03-22T01:27:41.985Z,8.75
2023-03-22T01:31:44.997Z,8.79
2023-03-22T01:35:47.685Z,8.78
2023-03-22T01:39:51.926Z,8.78
2023-03-22T01:44:15.451Z,8.77
2023-03-22T01:48:27.254Z,8.75
2023-03-22T01:52:29.965Z,8.67
2023-03-22T01:56:36.854Z,8.59
2023-03-22T02:00:39.799Z,8.47
2023-03-22T02:04:42.607Z,8.39
2023-03-22T02:08:45.489Z,8.41
2023-03-22T02:13:04.278Z,8.38
2023-03-22T02:17:20.055Z,8.33
2023-03-22T02:21:46.127Z,8.30
2023-03-22T02:26:12.485Z,8.30
2023-03-22T02:30:35.321Z,8.23
2023-03-22T02:35:10.329Z,8.18
2023-03-22T02:39:28.345Z,8.12
2023-03-22T02:43:38.602Z,8.05
2023-03-22T02:47:44.779Z,8.00
2023-03-22T02:51:53.731Z,8.01
2023-03-22T02:56:00.996Z,8.00
2023-03-22T03:00:11.190Z,7.99
2023-03-22T03:04:18.425Z,7.97
2023-03-22T03:08:23.722Z,7.98
2023-03-22T03:12:30.263Z,7.93
2023-03-22T03:16:36.706Z,7.90
2023-03-22T03:20:52.227Z,7.89
2023-03-22T03:25:02.924Z,7.90
2023-03-22T03:29:15.497Z,7.88
2023-03-22T03:33:24.623Z,7.80
2023-03-22T03:37:30.945Z,7.64
2023-03-22T03:41:34.408Z,7.55
2023-03-22T03:45:39.160Z,7.54
2023-03-22T03:49:42.048Z,7.45
2023-03-22T03:53:44.758Z,7.41
2023-03-22T03:57:47.409Z,7.40
2023-03-22T04:01:52.351Z,7.30
2023-03-22T04:05:55.919Z,7.18
2023-03-22T04:09:58.598Z,7.06
2023-03-22T04:14:01.493Z,6.92
2023-03-22T04:18:07.090Z,6.84
2023-03-22T04:22:14.565Z,6.80
2023-03-22T04:26:17.247Z,6.70
2023-03-22T04:30:20.418Z,6.64
2023-03-22T04:34:24.430Z,6.60
2023-03-22T04:38:27.088Z,6.55
2023-03-22T04:42:29.744Z,6.44
2023-03-22T04:46:34.156Z,6.41
2023-03-22T04:50:40.044Z,6.37
2023-03-22T04:54:42.875Z,6.30
2023-03-22T04:58:46.193Z,6.27
2023-03-22T05:02:49.715Z,6.43
2023-03-22T05:06:54.181Z,6.27
2023-03-22T05:10:58.589Z,6.22
2023-03-22T05:15:04.140Z,6.09
2023-03-22T05:19:13.741Z,6.01
2023-03-22T05:23:19.199Z,5.93
2023-03-22T05:27:31.573Z,5.79
2023-03-22T05:31:34.585Z,5.74
2023-03-22T05:35:39.386Z,5.69
2023-03-22T05:39:43.420Z,5.60
2023-03-22T05:43:46.099Z,5.65
2023-03-22T05:47:48.924Z,5.70
2023-03-22T05:51:51.852Z,5.71
2023-03-22T05:55:57.712Z,5.79
2023-03-22T06:00:01.768Z,5.77
2023-03-22T06:04:04.533Z,5.79
2023-03-22T06:08:07.193Z,5.87
2023-03-22T06:12:11.740Z,5.95
2023-03-22T06:16:14.918Z,6.04
2023-03-22T06:20:17.896Z,6.21
2023-03-22T06:24:20.872Z,6.18
2023-03-22T06:28:29.730Z,6.31
2023-03-22T06:32:32.425Z,6.43
2023-03-22T06:36:35.115Z,6.58
2023-03-22T06:40:37.978Z,6.75
2023-03-22T06:44:44.895Z,6.91
2023-03-22T06:48:47.684Z,7.04
2023-03-22T06:52:50.426Z,7.16
2023-03-22T06:56:53.848Z,7.36
2023-03-22T07:00:58.064Z,7.56
2023-03-22T07:05:00.813Z,7.71
2023-03-22T07:09:03.690Z,7.82
2023-03-22T07:13:06.547Z,7.96
2023-03-22T07:17:12.572Z,8.04
2023-03-22T07:21:15.845Z,8.22
2023-03-22T07:25:18.761Z,8.46
2023-03-22T07:29:21.499Z,8.68
2023-03-22T07:33:25.533Z,8.97
2023-03-22T07:37:28.351Z,9.20
2023-03-22T07:41:31.250Z,9.39
2023-03-22T07:45:34.274Z,9.55
2023-03-22T07:49:38.754Z,9.80
2023-03-22T07:53:41.433Z,9.99
2023-03-22T07:57:44.122Z,10.23
2023-03-22T08:01:46.821Z,10.40
2023-03-22T08:05:51.779Z,10.58
2023-03-22T08:09:54.590Z,10.73
2023-03-22T08:13:57.364Z,10.90
2023-03-22T08:18:00.710Z,11.16
2023-03-22T08:22:05.288Z,11.43
2023-03-22T08:26:08.365Z,11.55
2023-03-22T08:30:11.988Z,11.73
2023-03-22T08:34:14.686Z,12.04
2023-03-22T08:38:19.805Z,11.79
2023-03-22T08:42:23.367Z,11.96
2023-03-22T08:46:26.107Z,12.27
2023-03-22T08:50:28.907Z,12.72
2023-03-22T08:54:34.799Z,12.95
2023-03-22T08:58:37.777Z,13.12
2023-03-22T09:02:40.979Z,13.17
2023-03-22T09:06:45.422Z,13.39
2023-03-22T09:10:51.519Z,13.72
2023-03-22T09:14:56.471Z,13.90
2023-03-22T09:18:59.588Z,13.87
2023-03-22T09:23:02.257Z,13.94
2023-03-22T09:27:06.504Z,14.06
2023-03-22T09:31:11.410Z,14.15
2023-03-22T09:35:14.273Z,14.47
2023-03-22T09:39:17.097Z,14.63
2023-03-22T09:43:22.297Z,14.83
2023-03-22T09:47:44.218Z,15.04
2023-03-22T09:51:50.507Z,14.99
2023-03-22T09:55:58.552Z,15.13
2023-03-22T10:00:14.432Z,15.32
2023-03-22T10:04:31.193Z,15.59
2023-03-22T10:08:48.605Z,15.60
2023-03-22T10:12:55.741Z,15.70
2023-03-22T10:17:05.717Z,15.91
2023-03-22T10:21:10.720Z,15.95
2023-03-22T10:25:19.889Z,15.64
2023-03-22T10:29:27.551Z,16.15
2023-03-22T10:33:38.953Z,16.26
2023-03-22T10:37:44.995Z,16.24
2023-03-22T10:41:48.513Z,16.50
2023-03-22T10:45:53.683Z,16.17
2023-03-22T10:50:02.006Z,16.60
2023-03-22T10:54:06.046Z,16.79
2023-03-22T10:58:17.028Z,16.55
2023-03-22T11:02:22.859Z,16.72
2023-03-22T11:06:29.933Z,17.06
2023-03-22T11:10:33.994Z,17.36
2023-03-22T11:14:38.466Z,17.62
2023-03-22T11:18:42.744Z,17.90
2023-03-22T11:22:49.404Z,17.54
2023-03-22T11:27:05.743Z,17.55
2023-03-22T11:31:10.315Z,17.40
2023-03-22T11:35:15.733Z,17.53
2023-03-22T11:39:21.362Z,17.45
2023-03-22T11:43:26.819Z,17.85
2023-03-22T11:47:37.878Z,18.14
2023-03-22T11:51:41.803Z,18.17
2023-03-22T11:55:46.905Z,18.27
2023-03-22T11:59:54.565Z,18.33
2023-03-22T12:03:58.440Z,18.55
2023-03-22T12:08:05.150Z,18.55
2023-03-22T12:12:15.923Z,18.27
2023-03-22T12:16:25.801Z,18.82
2023-03-22T12:20:38.925Z,18.87
2023-03-22T12:24:42.971Z,19.01
2023-03-22T12:28:55.068Z,19.20
2023-03-22T12:33:01.662Z,19.12
2023-03-22T12:37:08.503Z,19.02
2023-03-22T12:41:16.410Z,19.37
2023-03-22T12:45:25.840Z,19.13
2023-03-22T12:49:35.509Z,19.30
2023-03-22T12:53:43.260Z,19.08
2023-03-22T12:57:51.308Z,19.49
2023-03-22T13:02:00.689Z,19.03
2023-03-22T13:06:06.654Z,19.08
2023-03-22T13:10:47.213Z,19.29
2023-03-22T13:14:59.405Z,19.21
2023-03-22T13:19:18.453Z,19.43
2023-03-22T13:23:28.037Z,19.95
2023-03-22T13:27:39.671Z,19.90
2023-03-22T13:31:45.399Z,19.66
2023-03-22T13:35:53.900Z,19.37
2023-03-22T13:40:02.687Z,19.63
2023-03-22T13:44:25.983Z,19.51
2023-03-22T13:48:35.614Z,19.05
2023-03-22T13:52:44.928Z,19.03
2023-03-22T13:56:54.261Z,19.46
2023-03-22T14:00:58.345Z,19.63
2023-03-22T14:05:09.297Z,19.34
2023-03-22T14:09:22.051Z,19.37
2023-03-22T14:13:31.822Z,19.85
2023-03-22T14:17:40.095Z,19.52
2023-03-22T14:21:45.235Z,19.28
